Time;durP1;ratioP1;P1;durP2;ratioP2;P2;SDS_P1;SDS_P2;PMS_P1;PMS_P2;Temp;Humidity;BMP_temperature;BMP_pressure;BME280_temperature;BME280_humidity;BME280_pressure;Samples;Min_cycle;Max_cycle;Signal;HPM_P1;HPM_P2
2023/09/12 00:01:41;;;;;;;9.13;6.40;;;23.70;99.90;;;;;;4943564;28;20662;-78
2023/09/12 00:04:07;;;;;;;9.87;6.10;;;23.60;99.90;;;;;;4947927;28;20221;-76
2023/09/12 00:06:33;;;;;;;11.40;6.90;;;23.50;99.90;;;;;;4954258;28;21034;-75
2023/09/12 00:08:58;;;;;;;10.90;6.40;;;23.40;99.90;;;;;;4948624;28;20855;-77
2023/09/12 00:11:25;;;;;;;9.20;6.33;;;23.40;99.90;;;;;;4941798;28;20221;-77
2023/09/12 00:13:52;;;;;;;8.53;6.30;;;23.40;99.90;;;;;;4944261;28;20226;-78
2023/09/12 00:16:17;;;;;;;7.87;6.00;;;23.40;99.90;;;;;;4962410;28;20465;-76
2023/09/12 00:18:43;;;;;;;9.17;6.50;;;23.40;99.90;;;;;;4950082;28;20489;-75
2023/09/12 00:21:09;;;;;;;8.27;6.40;;;23.40;99.90;;;;;;4949275;28;20237;-77
2023/09/12 00:23:35;;;;;;;7.77;6.40;;;23.40;99.90;;;;;;4947743;28;20611;-76
2023/09/12 00:26:01;;;;;;;7.17;6.47;;;23.40;99.90;;;;;;4950103;28;20584;-78
2023/09/12 00:28:27;;;;;;;13.00;7.27;;;23.40;99.90;;;;;;4943576;28;20226;-77
2023/09/12 00:30:53;;;;;;;10.60;6.17;;;23.40;99.90;;;;;;4960900;28;20487;-76
2023/09/12 00:33:19;;;;;;;9.40;6.63;;;23.30;99.90;;;;;;4963088;28;20466;-76
2023/09/12 00:35:45;;;;;;;13.13;6.13;;;23.30;99.90;;;;;;4962024;28;20301;-75
2023/09/12 00:38:11;;;;;;;8.77;6.40;;;23.40;99.90;;;;;;4943533;28;20734;-76
2023/09/12 00:40:37;;;;;;;9.27;7.80;;;23.30;99.90;;;;;;4960054;28;20325;-75
2023/09/12 00:43:03;;;;;;;8.60;7.00;;;23.30;99.90;;;;;;4953285;28;20226;-77
2023/09/12 00:45:29;;;;;;;15.60;7.40;;;23.30;99.90;;;;;;4947984;28;20461;-76
2023/09/12 00:47:57;;;;;;;12.23;7.83;;;23.20;99.90;;;;;;4948072;28;20622;-77
2023/09/12 00:50:25;;;;;;;7.80;6.50;;;23.20;99.90;;;;;;4947625;28;20218;-76
2023/09/12 00:52:51;;;;;;;10.03;6.90;;;23.10;99.90;;;;;;4927930;28;21078;-74
2023/09/12 00:55:17;;;;;;;10.60;7.90;;;23.10;99.90;;;;;;4946818;28;20589;-75
2023/09/12 00:57:43;;;;;;;11.10;7.73;;;23.10;99.90;;;;;;4946952;28;20466;-75
2023/09/12 01:00:12;;;;;;;8.03;6.70;;;23.10;99.90;;;;;;4946250;28;20236;-76
2023/09/12 01:02:43;;;;;;;10.20;6.63;;;23.10;99.90;;;;;;4930262;28;20473;-77
2023/09/12 01:05:10;;;;;;;12.13;7.23;;;23.00;99.90;;;;;;4947662;28;20839;-76
2023/09/12 01:07:37;;;;;;;7.73;6.93;;;23.00;99.90;;;;;;4947679;28;20469;-77
2023/09/12 01:10:04;;;;;;;10.80;6.80;;;22.90;99.90;;;;;;4942473;28;20461;-76
2023/09/12 01:12:30;;;;;;;7.90;6.93;;;22.90;99.90;;;;;;4943855;28;20465;-77
2023/09/12 01:14:55;;;;;;;10.20;6.67;;;22.80;99.90;;;;;;4952076;28;20470;-77
2023/09/12 01:17:25;;;;;;;13.33;7.37;;;22.70;99.90;;;;;;4948757;28;21059;-76
2023/09/12 01:19:51;;;;;;;9.77;7.30;;;22.70;99.90;;;;;;4962400;28;20237;-76
2023/09/12 01:22:29;;;;;;;9.17;7.13;;;22.80;99.90;;;;;;4947695;28;20453;-77
2023/09/12 01:25:16;;;;;;;10.10;7.50;;;22.80;99.90;;;;;;4946849;28;20475;-77
2023/09/12 01:27:51;;;;;;;9.47;7.33;;;22.90;99.90;;;;;;4963309;28;20535;-77
2023/09/12 01:30:22;;;;;;;9.93;7.93;;;22.90;99.90;;;;;;4947404;28;20480;-76
2023/09/12 01:32:48;;;;;;;8.63;7.17;;;22.90;99.90;;;;;;4947211;28;20468;-76
2023/09/12 01:35:14;;;;;;;12.80;7.73;;;22.80;99.90;;;;;;4948566;28;20534;-77
2023/09/12 01:37:40;;;;;;;14.63;6.70;;;22.80;99.90;;;;;;4955810;28;20608;-76
2023/09/12 01:40:07;;;;;;;8.23;6.30;;;22.80;99.90;;;;;;4931473;28;20238;-74
2023/09/12 01:42:45;;;;;;;11.10;8.70;;;22.80;99.90;;;;;;4963638;28;20230;-77
2023/09/12 01:45:14;;;;;;;8.53;6.93;;;22.80;99.90;;;;;;4946464;28;21011;-77
2023/09/12 01:47:41;;;;;;;7.77;6.80;;;22.80;99.90;;;;;;4953454;28;20474;-76
2023/09/12 01:50:12;;;;;;;8.30;6.60;;;22.80;99.90;;;;;;4946433;28;20464;-77
2023/09/12 01:52:40;;;;;;;13.67;6.90;;;22.80;99.90;;;;;;4963344;28;20484;-77
2023/09/12 01:55:09;;;;;;;7.27;6.60;;;22.70;99.90;;;;;;4946055;28;20466;-76
2023/09/12 01:57:38;;;;;;;9.30;6.90;;;22.80;99.90;;;;;;4964775;28;20494;-75
2023/09/12 02:00:05;;;;;;;6.80;6.20;;;22.70;99.90;;;;;;4950602;28;20485;-78
2023/09/12 02:02:32;;;;;;;9.13;6.87;;;22.70;99.90;;;;;;4967280;28;20480;-77
2023/09/12 02:05:19;;;;;;;9.00;6.40;;;22.70;99.90;;;;;;4950227;28;20465;-77
2023/09/12 02:07:45;;;;;;;8.20;7.03;;;22.70;99.90;;;;;;4951608;28;20223;-77
2023/09/12 02:10:11;;;;;;;8.13;6.77;;;22.70;99.90;;;;;;4962256;28;20476;-76
2023/09/12 02:12:38;;;;;;;9.10;7.50;;;22.60;99.90;;;;;;4930913;28;20470;-75
2023/09/12 02:15:04;;;;;;;8.97;7.40;;;22.60;99.90;;;;;;4966324;28;21184;-76
2023/09/12 02:17:30;;;;;;;13.17;7.40;;;22.60;99.90;;;;;;4949784;28;20479;-75
2023/09/12 02:19:56;;;;;;;12.10;8.77;;;22.60;99.90;;;;;;4949517;28;20470;-76
2023/09/12 02:22:22;;;;;;;8.03;7.23;;;22.60;99.90;;;;;;4964697;28;20921;-76
2023/09/12 02:24:48;;;;;;;8.50;7.70;;;22.60;99.90;;;;;;4951286;28;20774;-77
2023/09/12 02:27:14;;;;;;;10.03;7.23;;;22.50;99.90;;;;;;4949077;28;20225;-77
2023/09/12 02:29:41;;;;;;;8.50;7.03;;;22.50;99.90;;;;;;4950176;28;20461;-77
2023/09/12 02:32:07;;;;;;;10.37;8.37;;;22.40;99.90;;;;;;4952075;28;20229;-78
2023/09/12 02:34:33;;;;;;;10.53;8.70;;;22.40;99.90;;;;;;4963014;28;20465;-78
2023/09/12 02:36:59;;;;;;;12.60;8.10;;;22.40;99.90;;;;;;4942892;28;20241;-77
2023/09/12 02:39:25;;;;;;;9.53;8.53;;;22.40;99.90;;;;;;4944300;28;20708;-77
2023/09/12 02:41:50;;;;;;;11.40;7.23;;;22.40;99.90;;;;;;4944407;28;20225;-76
2023/09/12 02:44:16;;;;;;;10.50;7.60;;;22.40;99.90;;;;;;4950067;28;20293;-75
2023/09/12 02:46:42;;;;;;;12.23;7.93;;;22.40;99.90;;;;;;4936793;28;20234;-76
2023/09/12 02:49:08;;;;;;;16.67;8.23;;;22.30;99.90;;;;;;4936499;28;20716;-77
2023/09/12 02:51:33;;;;;;;12.93;9.20;;;22.30;99.90;;;;;;4933111;28;20767;-77
2023/09/12 02:53:59;;;;;;;14.20;7.50;;;22.30;99.90;;;;;;4965849;28;20238;-77
2023/09/12 02:56:25;;;;;;;7.67;6.87;;;22.20;99.90;;;;;;4951141;28;20239;-76
2023/09/12 02:58:50;;;;;;;11.57;7.70;;;22.20;99.90;;;;;;4961835;28;20230;-75
2023/09/12 03:01:18;;;;;;;11.00;8.10;;;22.10;99.90;;;;;;4946459;28;20291;-76
2023/09/12 03:03:48;;;;;;;9.50;7.23;;;22.10;99.90;;;;;;4946462;28;20222;-77
2023/09/12 03:06:14;;;;;;;8.80;7.30;;;22.20;99.90;;;;;;4945919;28;20472;-77
2023/09/12 03:08:41;;;;;;;8.80;7.83;;;22.20;99.90;;;;;;4936665;28;20478;-76
2023/09/12 03:11:07;;;;;;;9.63;7.67;;;22.20;99.90;;;;;;4964490;28;20496;-76
2023/09/12 03:13:34;;;;;;;11.10;7.70;;;22.20;99.90;;;;;;4935216;28;20517;-76
2023/09/12 03:16:00;;;;;;;9.90;8.20;;;22.20;99.90;;;;;;4944925;28;20466;-77
2023/09/12 03:18:26;;;;;;;7.60;6.90;;;22.10;99.90;;;;;;4965571;28;20223;-77
2023/09/12 03:20:53;;;;;;;12.00;7.93;;;22.10;99.90;;;;;;4950366;28;20469;-76
2023/09/12 03:23:19;;;;;;;19.70;8.20;;;22.10;99.90;;;;;;4949195;28;20461;-77
2023/09/12 03:25:45;;;;;;;10.13;8.13;;;22.20;99.90;;;;;;4947966;28;20792;-77
2023/09/12 03:28:11;;;;;;;11.90;8.20;;;22.20;99.90;;;;;;4954918;28;20481;-76
2023/09/12 03:30:38;;;;;;;12.03;7.83;;;22.20;99.90;;;;;;4949489;28;20552;-76
2023/09/12 03:33:05;;;;;;;8.37;7.20;;;22.10;99.90;;;;;;4963268;28;20218;-75
2023/09/12 03:35:32;;;;;;;9.97;7.67;;;22.10;99.90;;;;;;4948899;28;20520;-78
2023/09/12 03:37:58;;;;;;;10.93;8.03;;;22.10;99.90;;;;;;4931906;28;20565;-74
2023/09/12 03:40:24;;;;;;;9.30;7.70;;;22.10;99.90;;;;;;4963828;28;20477;-77
2023/09/12 03:42:50;;;;;;;11.60;9.10;;;22.00;99.90;;;;;;4964206;28;20301;-76
2023/09/12 03:45:16;;;;;;;14.03;8.80;;;22.00;99.90;;;;;;4963223;28;20225;-76
2023/09/12 03:47:43;;;;;;;14.00;8.00;;;22.10;99.90;;;;;;4953801;28;20256;-75
2023/09/12 03:50:09;;;;;;;10.33;7.80;;;22.10;99.90;;;;;;4961992;28;20465;-78
2023/09/12 03:52:35;;;;;;;11.87;7.70;;;22.00;99.90;;;;;;4949348;28;20468;-77
2023/09/12 03:55:00;;;;;;;20.43;8.53;;;22.00;99.90;;;;;;4954433;28;20222;-76
2023/09/12 03:57:26;;;;;;;12.63;9.50;;;22.00;99.90;;;;;;4948210;28;20320;-78
2023/09/12 03:59:52;;;;;;;12.83;8.13;;;22.00;99.90;;;;;;4932125;28;20818;-78
2023/09/12 04:02:18;;;;;;;19.67;8.93;;;22.00;99.90;;;;;;4960864;28;20225;-77
2023/09/12 04:04:44;;;;;;;13.00;8.07;;;22.00;99.90;;;;;;4943836;28;20544;-77
2023/09/12 04:07:10;;;;;;;11.80;9.07;;;22.00;99.90;;;;;;4948211;28;20698;-78
2023/09/12 04:09:36;;;;;;;14.17;8.90;;;22.00;99.90;;;;;;4963566;28;20963;-78
2023/09/12 04:12:02;;;;;;;11.87;8.83;;;22.00;99.90;;;;;;4963397;28;20230;-77
2023/09/12 04:14:27;;;;;;;9.43;8.43;;;22.00;99.90;;;;;;4941879;28;20736;-76
2023/09/12 04:16:53;;;;;;;8.57;7.50;;;22.00;99.90;;;;;;4948237;28;20588;-77
2023/09/12 04:19:19;;;;;;;11.20;8.50;;;21.90;99.90;;;;;;4960674;28;20221;-77
2023/09/12 04:21:45;;;;;;;10.10;8.67;;;21.90;99.90;;;;;;4948444;28;20214;-75
2023/09/12 04:24:11;;;;;;;11.43;8.57;;;21.90;99.90;;;;;;4945191;28;20239;-77
2023/09/12 04:26:36;;;;;;;10.67;8.40;;;22.00;99.90;;;;;;4932469;28;20218;-77
2023/09/12 04:29:02;;;;;;;11.90;8.37;;;22.00;99.90;;;;;;4955077;28;20469;-76
2023/09/12 04:31:28;;;;;;;11.80;9.13;;;22.00;99.90;;;;;;4963786;28;20332;-76
2023/09/12 04:33:54;;;;;;;10.50;8.47;;;22.00;99.90;;;;;;4950250;28;20222;-77
2023/09/12 04:36:23;;;;;;;15.97;8.70;;;22.00;99.90;;;;;;4947876;28;20321;-77
2023/09/12 04:38:48;;;;;;;13.30;9.23;;;21.90;99.90;;;;;;4949121;28;20480;-77
2023/09/12 04:41:16;;;;;;;8.33;7.50;;;21.90;99.90;;;;;;4944808;28;20545;-75
2023/09/12 04:43:46;;;;;;;14.50;8.77;;;21.90;99.90;;;;;;4948637;28;20229;-75
2023/09/12 04:46:12;;;;;;;13.80;8.80;;;22.00;99.90;;;;;;4951133;28;20473;-76
2023/09/12 04:48:39;;;;;;;15.37;9.33;;;21.90;99.90;;;;;;4944855;28;20583;-76
2023/09/12 04:51:05;;;;;;;10.43;7.97;;;21.90;99.90;;;;;;4944622;28;20818;-76
2023/09/12 04:53:34;;;;;;;11.07;8.40;;;21.90;99.90;;;;;;4964305;28;20479;-77
2023/09/12 04:56:06;;;;;;;14.07;9.10;;;21.90;99.90;;;;;;4953272;28;20227;-76
2023/09/12 04:58:32;;;;;;;11.23;8.90;;;21.90;99.90;;;;;;4945320;28;20539;-77
2023/09/12 05:00:58;;;;;;;9.83;8.07;;;21.90;99.90;;;;;;4945708;28;20614;-76
2023/09/12 05:03:23;;;;;;;11.70;8.73;;;21.90;99.90;;;;;;4961340;28;20233;-73
2023/09/12 05:05:50;;;;;;;9.73;8.73;;;21.90;99.90;;;;;;4961763;28;20256;-77
2023/09/12 05:08:17;;;;;;;15.80;8.20;;;21.90;99.90;;;;;;4928806;28;20308;-77
2023/09/12 05:10:47;;;;;;;12.87;9.30;;;21.90;99.90;;;;;;4926893;28;20530;-78
2023/09/12 05:13:13;;;;;;;15.97;12.30;;;21.90;99.90;;;;;;4962722;28;20983;-76
2023/09/12 05:15:40;;;;;;;14.57;12.10;;;21.90;99.90;;;;;;4941444;28;21000;-76
2023/09/12 05:18:07;;;;;;;11.43;9.40;;;21.80;99.90;;;;;;4946920;28;20568;-77
2023/09/12 05:20:33;;;;;;;12.60;8.80;;;21.80;99.90;;;;;;4945387;28;20504;-77
2023/09/12 05:22:59;;;;;;;9.03;8.13;;;21.80;99.90;;;;;;4963730;28;20934;-76
2023/09/12 05:25:26;;;;;;;11.07;8.80;;;21.80;99.90;;;;;;4951494;28;20461;-77
2023/09/12 05:27:52;;;;;;;9.27;8.20;;;21.80;99.90;;;;;;4952096;28;20706;-77
2023/09/12 05:30:18;;;;;;;12.73;8.17;;;21.80;99.90;;;;;;4936856;28;20513;-77
2023/09/12 05:32:44;;;;;;;12.33;8.53;;;21.80;99.90;;;;;;4941499;28;20696;-77
2023/09/12 05:35:10;;;;;;;11.50;8.43;;;21.80;99.90;;;;;;4909418;28;20305;-78
2023/09/12 05:37:36;;;;;;;12.47;8.00;;;21.80;99.90;;;;;;4918641;28;20307;-76
2023/09/12 05:40:03;;;;;;;13.97;9.20;;;21.80;99.90;;;;;;4929434;28;20333;-77
2023/09/12 05:42:29;;;;;;;9.57;8.27;;;21.80;99.90;;;;;;4912810;28;20458;-76
2023/09/12 05:44:54;;;;;;;12.53;9.03;;;21.80;99.90;;;;;;4916492;28;20465;-77
2023/09/12 05:47:21;;;;;;;12.57;9.07;;;21.70;99.90;;;;;;4918040;28;20726;-77
2023/09/12 05:49:47;;;;;;;12.10;8.63;;;21.70;99.90;;;;;;4933917;28;20588;-77
2023/09/12 05:52:12;;;;;;;9.50;7.60;;;21.70;99.90;;;;;;4915415;28;20476;-78
2023/09/12 05:54:40;;;;;;;12.77;9.90;;;21.70;99.90;;;;;;4918219;28;20347;-77
2023/09/12 05:57:07;;;;;;;12.20;8.97;;;21.60;99.90;;;;;;4910213;28;20233;-78
2023/09/12 05:59:35;;;;;;;12.80;8.90;;;21.60;99.90;;;;;;4927280;28;20508;-77
2023/09/12 06:02:01;;;;;;;17.53;9.50;;;21.60;99.90;;;;;;4899049;28;20527;-78
2023/09/12 06:04:27;;;;;;;20.20;9.43;;;21.60;99.90;;;;;;4900844;28;20603;-77
2023/09/12 06:06:53;;;;;;;10.93;9.83;;;21.70;99.90;;;;;;4913966;28;20469;-79
2023/09/12 06:09:18;;;;;;;14.13;9.70;;;21.60;99.90;;;;;;4926303;28;20231;-77
2023/09/12 06:11:44;;;;;;;14.47;9.20;;;21.60;99.90;;;;;;4933620;28;20472;-78
2023/09/12 06:14:10;;;;;;;12.90;9.70;;;21.60;99.90;;;;;;4915475;28;20222;-77
2023/09/12 06:16:35;;;;;;;13.60;9.47;;;21.60;99.90;;;;;;4918486;28;20234;-78
2023/09/12 06:19:01;;;;;;;12.83;10.10;;;21.60;99.90;;;;;;4904699;28;20226;-78
2023/09/12 06:21:26;;;;;;;14.93;9.57;;;21.60;99.90;;;;;;4915488;28;20231;-78
2023/09/12 06:24:11;;;;;;;15.67;9.13;;;21.60;99.90;;;;;;4913574;28;20309;-77
2023/09/12 06:26:37;;;;;;;11.93;9.83;;;21.60;99.90;;;;;;4917895;28;20785;-78
2023/09/12 06:29:03;;;;;;;12.50;8.50;;;21.60;99.90;;;;;;4925391;28;20584;-77
2023/09/12 06:31:29;;;;;;;16.27;11.90;;;21.60;99.90;;;;;;4917929;28;20291;-76
2023/09/12 06:33:55;;;;;;;12.43;8.97;;;21.60;99.90;;;;;;4898661;28;20234;-76
2023/09/12 06:36:21;;;;;;;12.83;9.73;;;21.70;99.90;;;;;;4933462;28;20405;-76
2023/09/12 06:38:47;;;;;;;11.63;9.63;;;21.70;99.90;;;;;;4914053;28;20244;-77
2023/09/12 06:41:13;;;;;;;12.13;8.93;;;21.70;99.90;;;;;;4911101;28;20241;-76
2023/09/12 06:43:38;;;;;;;15.23;8.83;;;21.80;99.90;;;;;;4918533;28;20470;-76
2023/09/12 06:46:04;;;;;;;14.60;9.57;;;21.80;99.90;;;;;;4912962;28;20739;-78
2023/09/12 06:48:30;;;;;;;15.37;8.50;;;21.80;99.90;;;;;;4909048;28;20233;-77
2023/09/12 06:50:55;;;;;;;13.37;9.83;;;21.80;99.90;;;;;;4930736;28;20222;-77
2023/09/12 06:53:21;;;;;;;12.00;9.80;;;21.80;99.90;;;;;;4929156;28;20236;-76
2023/09/12 06:55:47;;;;;;;13.20;9.37;;;21.80;99.90;;;;;;4940697;28;20229;-76
2023/09/12 06:58:12;;;;;;;13.23;9.30;;;21.80;99.90;;;;;;4931433;28;20305;-75
2023/09/12 07:00:38;;;;;;;16.80;9.90;;;21.80;99.90;;;;;;4941674;28;20234;-75
2023/09/12 07:03:04;;;;;;;11.60;8.70;;;21.80;99.90;;;;;;4931379;28;20237;-77
2023/09/12 07:05:29;;;;;;;10.60;8.30;;;21.90;99.90;;;;;;4928804;28;20221;-78
2023/09/12 07:07:55;;;;;;;14.47;10.00;;;21.90;99.90;;;;;;4931472;28;20371;-76
2023/09/12 07:10:21;;;;;;;11.53;8.80;;;22.00;99.90;;;;;;4918418;28;20234;-77
2023/09/12 07:12:46;;;;;;;14.30;8.97;;;22.00;99.90;;;;;;4915106;28;20226;-77
2023/09/12 07:15:12;;;;;;;10.00;9.10;;;22.00;99.90;;;;;;4900781;28;20387;-77
2023/09/12 07:17:38;;;;;;;11.30;9.07;;;22.00;99.90;;;;;;4917058;28;20268;-75
2023/09/12 07:20:11;;;;;;;13.20;8.57;;;22.10;99.90;;;;;;4914350;28;20485;-77
2023/09/12 07:22:38;;;;;;;14.03;8.83;;;22.10;99.90;;;;;;4904323;28;20507;-76
2023/09/12 07:25:04;;;;;;;9.43;8.33;;;22.10;99.90;;;;;;4913408;28;20480;-77
2023/09/12 07:27:29;;;;;;;15.43;8.87;;;22.20;99.90;;;;;;4928257;28;20865;-78
2023/09/12 07:29:55;;;;;;;11.70;8.30;;;22.20;99.90;;;;;;4913538;28;20238;-76
2023/09/12 07:32:21;;;;;;;12.13;9.40;;;22.30;99.90;;;;;;4932133;28;20284;-76
2023/09/12 07:34:48;;;;;;;10.87;9.27;;;22.30;99.90;;;;;;4908218;28;20225;-77
2023/09/12 07:37:14;;;;;;;13.20;9.03;;;22.30;99.90;;;;;;4900699;28;20338;-76
2023/09/12 07:39:40;;;;;;;10.57;9.47;;;22.40;99.90;;;;;;4916006;28;20844;-76
2023/09/12 07:42:06;;;;;;;13.87;9.47;;;22.50;99.90;;;;;;4914912;28;20457;-78
2023/09/12 07:44:31;;;;;;;15.20;8.30;;;22.50;99.90;;;;;;4910774;28;20217;-78
2023/09/12 07:46:57;;;;;;;14.33;9.10;;;22.60;99.90;;;;;;4900784;28;20229;-77
2023/09/12 07:49:26;;;;;;;17.10;9.57;;;22.80;99.90;;;;;;4915839;28;20309;-77
2023/09/12 07:51:51;;;;;;;11.93;9.40;;;22.80;99.90;;;;;;4906463;28;20237;-77
2023/09/12 07:54:17;;;;;;;11.13;9.20;;;22.90;99.90;;;;;;4907242;28;20547;-77
2023/09/12 07:56:43;;;;;;;15.53;8.43;;;22.90;99.90;;;;;;4914936;28;20285;-78
2023/09/12 07:59:10;;;;;;;10.60;8.40;;;22.90;99.90;;;;;;4913592;28;20485;-77
2023/09/12 08:01:36;;;;;;;10.10;8.77;;;23.00;99.90;;;;;;4914342;28;20284;-77
2023/09/12 08:04:02;;;;;;;9.67;8.67;;;23.00;99.90;;;;;;4923161;28;21362;-76
2023/09/12 08:06:28;;;;;;;10.90;8.67;;;23.10;99.90;;;;;;4930411;28;20237;-76
2023/09/12 08:08:53;;;;;;;12.17;9.40;;;23.20;99.90;;;;;;4912379;28;20222;-76
2023/09/12 08:11:19;;;;;;;13.37;9.50;;;23.20;99.90;;;;;;4915122;28;20316;-77
2023/09/12 08:13:49;;;;;;;15.60;9.17;;;23.30;99.90;;;;;;4923701;28;20248;-78
2023/09/12 08:16:15;;;;;;;15.70;9.13;;;23.30;99.90;;;;;;4919441;28;20264;-78
2023/09/12 08:18:41;;;;;;;10.67;9.43;;;23.40;99.90;;;;;;4914830;28;20834;-76
2023/09/12 08:21:07;;;;;;;11.77;8.87;;;23.50;99.90;;;;;;4910420;28;20575;-77
2023/09/12 08:23:33;;;;;;;10.90;9.80;;;23.60;99.90;;;;;;4895657;28;20360;-76
2023/09/12 08:25:58;;;;;;;15.43;9.10;;;23.80;99.90;;;;;;4910093;28;20233;-77
2023/09/12 08:28:24;;;;;;;12.37;9.40;;;23.90;99.90;;;;;;4908017;28;20265;-77
2023/09/12 08:30:50;;;;;;;11.70;9.20;;;24.00;99.90;;;;;;4911209;28;21015;-77
2023/09/12 08:33:16;;;;;;;13.27;8.90;;;24.20;99.90;;;;;;4890592;28;20222;-76
2023/09/12 08:35:42;;;;;;;12.23;8.83;;;24.40;99.90;;;;;;4915050;28;20470;-77
2023/09/12 08:38:08;;;;;;;15.67;9.10;;;24.30;99.90;;;;;;4885415;28;20803;-77
2023/09/12 08:40:35;;;;;;;14.50;9.00;;;24.40;99.90;;;;;;4917006;28;20226;-78
2023/09/12 08:43:03;;;;;;;11.40;8.90;;;24.40;99.90;;;;;;4900470;28;20473;-77
2023/09/12 08:45:29;;;;;;;12.40;9.53;;;24.50;99.90;;;;;;4892234;28;20595;-76
2023/09/12 08:47:58;;;;;;;14.63;9.63;;;24.50;99.90;;;;;;4921533;28;20481;-76
2023/09/12 08:50:24;;;;;;;11.07;8.70;;;24.60;99.90;;;;;;4915130;28;20520;-77
2023/09/12 08:52:51;;;;;;;9.70;8.33;;;24.70;99.90;;;;;;4912095;28;20500;-77
2023/09/12 08:55:17;;;;;;;12.97;8.50;;;24.70;99.90;;;;;;4913375;28;20493;-75
2023/09/12 08:57:43;;;;;;;17.03;9.37;;;24.80;99.90;;;;;;4914494;28;20551;-77
2023/09/12 09:00:14;;;;;;;11.63;9.50;;;25.10;99.90;;;;;;4927786;28;20477;-77
2023/09/12 09:02:43;;;;;;;15.63;9.70;;;25.20;99.90;;;;;;4912545;28;20472;-78
2023/09/12 09:05:11;;;;;;;12.77;8.90;;;25.30;99.90;;;;;;4910649;28;20460;-77
2023/09/12 09:07:41;;;;;;;15.37;10.20;;;25.30;99.90;;;;;;4916522;28;20469;-77
2023/09/12 09:10:14;;;;;;;11.83;8.30;;;25.50;99.90;;;;;;4911768;28;22018;-77
2023/09/12 09:12:40;;;;;;;9.80;8.70;;;25.70;99.90;;;;;;4935117;28;20469;-77
2023/09/12 09:15:25;;;;;;;10.93;8.20;;;26.00;99.90;;;;;;4915700;28;21200;-78
2023/09/12 09:17:53;;;;;;;18.13;10.17;;;26.10;99.90;;;;;;4917349;28;20512;-78
2023/09/12 09:20:29;;;;;;;9.47;8.57;;;26.10;99.90;;;;;;4921144;28;20480;-78
2023/09/12 09:23:01;;;;;;;13.00;8.50;;;26.30;99.90;;;;;;4915348;28;20483;-78
2023/09/12 09:25:27;;;;;;;11.30;8.70;;;26.40;99.90;;;;;;4919699;28;20525;-79
2023/09/12 09:27:53;;;;;;;13.17;8.93;;;26.50;99.90;;;;;;4914313;28;20565;-77
2023/09/12 09:30:42;;;;;;;14.00;9.50;;;26.60;99.90;;;;;;4931017;28;20524;-73
2023/09/12 09:33:08;;;;;;;17.40;10.10;;;26.70;99.90;;;;;;4915325;28;20230;-76
2023/09/12 09:35:34;;;;;;;11.47;10.23;;;26.80;99.90;;;;;;4911878;28;20473;-76
2023/09/12 09:38:00;;;;;;;13.83;9.43;;;26.80;99.90;;;;;;4916100;28;20873;-76
2023/09/12 09:40:26;;;;;;;15.20;9.73;;;26.90;99.90;;;;;;4916849;28;20489;-78
2023/09/12 09:42:58;;;;;;;13.87;9.17;;;26.90;99.90;;;;;;4930041;28;20233;-76
2023/09/12 09:45:24;;;;;;;12.10;9.80;;;26.90;99.90;;;;;;4924272;28;20332;-78
2023/09/12 09:47:51;;;;;;;10.20;9.20;;;27.00;99.90;;;;;;4934349;28;20473;-77
2023/09/12 09:50:16;;;;;;;10.50;9.07;;;27.10;99.90;;;;;;4923070;28;20814;-78
2023/09/12 09:52:45;;;;;;;16.90;11.00;;;27.40;99.90;;;;;;4923815;28;20465;-77
2023/09/12 09:55:15;;;;;;;16.40;11.73;;;27.50;99.90;;;;;;4924500;28;20229;-76
2023/09/12 09:57:40;;;;;;;10.40;8.80;;;27.40;99.90;;;;;;4922981;28;20473;-77
2023/09/12 10:00:14;;;;;;;9.40;8.37;;;27.60;99.90;;;;;;4923296;28;21046;-78
2023/09/12 10:02:40;;;;;;;10.93;8.63;;;27.80;99.90;;;;;;4922928;28;20222;-77
2023/09/12 10:05:10;;;;;;;13.70;8.87;;;27.90;99.90;;;;;;4923857;28;20218;-77
2023/09/12 10:07:38;;;;;;;11.93;9.48;;;28.00;99.90;;;;;;4938474;28;20226;-76
2023/09/12 10:10:04;;;;;;;9.32;8.35;;;28.10;99.90;;;;;;4939216;28;20746;-77
2023/09/12 10:12:37;;;;;;;17.23;10.93;;;28.30;99.90;;;;;;4935454;28;20226;-77
2023/09/12 10:15:04;;;;;;;12.20;9.95;;;28.50;99.90;;;;;;4938199;28;20276;-77
2023/09/12 10:17:36;;;;;;;13.38;10.07;;;28.60;99.90;;;;;;4923297;28;20845;-77
2023/09/12 10:20:12;;;;;;;11.05;9.73;;;28.50;99.90;;;;;;4924788;28;20884;-77
2023/09/12 10:22:43;;;;;;;11.52;10.15;;;28.40;99.90;;;;;;4922157;28;20232;-77
2023/09/12 10:25:11;;;;;;;12.80;9.25;;;28.40;99.90;;;;;;4923210;28;20222;-77
2023/09/12 10:27:37;;;;;;;11.48;10.25;;;28.50;99.90;;;;;;4924511;28;20221;-77
2023/09/12 10:30:04;;;;;;;10.82;9.43;;;28.80;99.90;;;;;;4913576;28;20226;-77
2023/09/12 10:32:32;;;;;;;10.88;9.88;;;29.00;99.90;;;;;;4923169;28;20329;-76
2023/09/12 10:34:59;;;;;;;11.05;9.82;;;29.10;99.90;;;;;;4937220;28;20240;-77
2023/09/12 10:37:27;;;;;;;13.68;11.05;;;29.20;99.90;;;;;;4922942;28;20231;-76
2023/09/12 10:39:53;;;;;;;11.18;10.13;;;29.10;99.90;;;;;;4936182;28;20373;-77
2023/09/12 10:42:20;;;;;;;14.88;9.93;;;29.20;99.90;;;;;;4936399;28;20222;-77
2023/09/12 10:44:46;;;;;;;12.93;9.55;;;29.20;99.90;;;;;;4937154;28;20225;-76
2023/09/12 10:47:13;;;;;;;10.73;9.57;;;29.10;99.90;;;;;;4923745;28;20226;-77
2023/09/12 10:49:43;;;;;;;14.85;10.15;;;28.70;99.90;;;;;;4920467;28;20222;-77
2023/09/12 10:52:08;;;;;;;12.15;10.57;;;28.70;99.90;;;;;;4936263;28;20440;-77
2023/09/12 10:54:39;;;;;;;14.73;10.43;;;28.90;99.90;;;;;;4936693;28;20226;-78
2023/09/12 10:57:06;;;;;;;10.75;9.68;;;28.90;99.90;;;;;;4920253;28;20226;-77
2023/09/12 10:59:35;;;;;;;11.30;9.20;;;29.10;99.90;;;;;;4935308;28;20230;-76
2023/09/12 11:02:36;;;;;;;10.48;9.43;;;29.10;99.90;;;;;;4930558;28;20643;-77
2023/09/12 11:05:27;;;;;;;14.27;9.38;;;29.00;99.90;;;;;;4921349;28;20222;-77
2023/09/12 11:07:57;;;;;;;12.40;9.23;;;28.90;99.90;;;;;;4920523;28;20230;-76
2023/09/12 11:10:23;;;;;;;10.57;9.23;;;29.00;99.90;;;;;;4920845;28;20210;-77
2023/09/12 11:12:51;;;;;;;17.58;9.18;;;29.10;99.90;;;;;;4919615;28;20218;-77
2023/09/12 11:15:19;;;;;;;12.90;8.32;;;29.40;99.90;;;;;;4921613;28;20234;-77
2023/09/12 11:17:47;;;;;;;12.38;9.20;;;29.50;99.90;;;;;;4921473;28;20229;-77
2023/09/12 11:20:14;;;;;;;12.23;9.13;;;29.70;99.90;;;;;;4918548;28;20378;-77
2023/09/12 11:22:45;;;;;;;11.05;9.88;;;29.90;99.90;;;;;;4930792;28;20234;-78
2023/09/12 11:25:27;;;;;;;9.65;8.65;;;29.90;99.90;;;;;;4919212;28;20230;-77
2023/09/12 11:27:53;;;;;;;11.25;9.43;;;30.10;99.90;;;;;;4919995;28;20341;-76
2023/09/12 11:30:23;;;;;;;12.85;8.98;;;30.30;99.90;;;;;;4921195;28;20221;-75
2023/09/12 11:32:54;;;;;;;12.23;10.25;;;30.30;99.90;;;;;;4920379;28;20226;-77
2023/09/12 11:35:28;;;;;;;10.32;8.90;;;30.30;99.90;;;;;;4924223;28;20905;-77
2023/09/12 11:37:56;;;;;;;10.23;9.15;;;30.50;99.90;;;;;;4904411;28;20332;-75
2023/09/12 11:40:26;;;;;;;9.95;8.95;;;30.70;99.90;;;;;;4931620;28;20229;-77
2023/09/12 11:42:52;;;;;;;14.45;9.55;;;31.10;99.90;;;;;;4934767;28;20921;-77
2023/09/12 11:45:19;;;;;;;11.68;10.55;;;30.90;99.90;;;;;;4920480;28;20230;-77
2023/09/12 11:47:46;;;;;;;11.95;9.02;;;30.90;99.90;;;;;;4920655;28;20908;-76
2023/09/12 11:50:28;;;;;;;11.77;10.18;;;30.90;99.90;;;;;;4927656;28;20718;-77
2023/09/12 11:53:04;;;;;;;12.50;8.63;;;30.70;99.90;;;;;;4943216;28;20229;-77
2023/09/12 11:55:37;;;;;;;10.55;8.50;;;30.70;99.90;;;;;;4944933;28;20222;-77
2023/09/12 11:58:03;;;;;;;14.57;9.25;;;30.80;99.90;;;;;;4946049;28;20240;-78
2023/09/12 12:00:29;;;;;;;10.43;9.18;;;31.10;99.20;;;;;;4946646;28;20226;-77
2023/09/12 12:02:55;;;;;;;10.70;9.70;;;31.20;99.10;;;;;;4947941;28;20260;-78
2023/09/12 12:05:22;;;;;;;12.02;9.70;;;31.20;99.90;;;;;;4962762;28;20226;-76
2023/09/12 12:07:49;;;;;;;10.68;9.27;;;31.10;99.90;;;;;;4946403;28;20729;-74
2023/09/12 12:10:16;;;;;;;9.75;8.68;;;31.20;99.70;;;;;;4948243;28;20913;-77
2023/09/12 12:12:45;;;;;;;10.52;8.90;;;31.20;99.90;;;;;;4962285;28;20230;-76
2023/09/12 12:15:12;;;;;;;10.25;9.20;;;31.20;99.80;;;;;;4928226;28;20228;-77
2023/09/12 12:17:40;;;;;;;10.02;9.10;;;31.00;99.90;;;;;;4960519;28;20883;-78
2023/09/12 12:20:10;;;;;;;10.35;8.73;;;30.90;99.90;;;;;;4947853;28;20229;-77
2023/09/12 12:22:39;;;;;;;10.52;9.43;;;31.10;99.90;;;;;;4945867;28;20916;-75
2023/09/12 12:25:09;;;;;;;16.10;9.23;;;31.10;99.90;;;;;;4947954;28;20229;-78
2023/09/12 12:27:37;;;;;;;9.30;8.50;;;30.90;99.90;;;;;;4947494;28;20226;-76
2023/09/12 12:30:04;;;;;;;10.27;9.27;;;30.90;99.90;;;;;;4964771;28;20324;-74
2023/09/12 12:32:30;;;;;;;11.77;9.15;;;30.90;99.90;;;;;;4949119;28;20303;-75
2023/09/12 12:34:56;;;;;;;11.40;9.18;;;31.00;99.90;;;;;;4947338;28;20315;-76
2023/09/12 12:37:30;;;;;;;12.40;9.60;;;31.00;99.90;;;;;;4948364;28;20707;-76
2023/09/12 12:39:55;;;;;;;9.43;8.60;;;31.00;99.90;;;;;;4946908;28;20699;-76